sensor_id;sensor_type;location;lat;lon;timestamp;temperature;humidity
24164;DHT22;12319;49.204;8.116;2023-07-09T00:00:49;24.00;60.40
24164;DHT22;12319;49.204;8.116;2023-07-09T00:03:17;23.90;60.00
24164;DHT22;12319;49.204;8.116;2023-07-09T00:05:43;23.90;60.40
24164;DHT22;12319;49.204;8.116;2023-07-09T00:08:28;23.80;60.20
24164;DHT22;12319;49.204;8.116;2023-07-09T00:10:55;23.80;61.10
24164;DHT22;12319;49.204;8.116;2023-07-09T00:13:22;23.70;60.60
24164;DHT22;12319;49.204;8.116;2023-07-09T00:15:49;23.70;60.80
24164;DHT22;12319;49.204;8.116;2023-07-09T00:18:15;23.70;61.10
24164;DHT22;12319;49.204;8.116;2023-07-09T00:20:40;23.70;61.10
24164;DHT22;12319;49.204;8.116;2023-07-09T00:23:11;23.60;61.20
24164;DHT22;12319;49.204;8.116;2023-07-09T00:25:45;23.50;61.50
24164;DHT22;12319;49.204;8.116;2023-07-09T00:28:15;23.50;61.40
24164;DHT22;12319;49.204;8.116;2023-07-09T00:30:41;23.50;61.50
24164;DHT22;12319;49.204;8.116;2023-07-09T00:33:11;23.40;61.40
24164;DHT22;12319;49.204;8.116;2023-07-09T00:35:39;23.50;61.50
24164;DHT22;12319;49.204;8.116;2023-07-09T00:38:12;23.50;61.60
24164;DHT22;12319;49.204;8.116;2023-07-09T00:40:37;23.40;61.70
24164;DHT22;12319;49.204;8.116;2023-07-09T00:43:10;23.50;61.90
24164;DHT22;12319;49.204;8.116;2023-07-09T00:45:40;23.50;62.30
24164;DHT22;12319;49.204;8.116;2023-07-09T00:48:09;23.40;61.90
24164;DHT22;12319;49.204;8.116;2023-07-09T00:50:49;23.50;62.10
24164;DHT22;12319;49.204;8.116;2023-07-09T00:53:29;23.40;62.10
24164;DHT22;12319;49.204;8.116;2023-07-09T00:56:01;23.40;62.40
24164;DHT22;12319;49.204;8.116;2023-07-09T00:58:29;23.40;62.40
24164;DHT22;12319;49.204;8.116;2023-07-09T01:00:59;23.50;62.60
24164;DHT22;12319;49.204;8.116;2023-07-09T01:03:37;23.30;62.60
24164;DHT22;12319;49.204;8.116;2023-07-09T01:06:06;23.30;63.00
24164;DHT22;12319;49.204;8.116;2023-07-09T01:08:33;23.10;62.60
24164;DHT22;12319;49.204;8.116;2023-07-09T01:11:00;23.30;63.00
24164;DHT22;12319;49.204;8.116;2023-07-09T01:13:27;23.10;62.90
24164;DHT22;12319;49.204;8.116;2023-07-09T01:15:54;23.10;63.10
24164;DHT22;12319;49.204;8.116;2023-07-09T01:18:20;23.20;63.10
24164;DHT22;12319;49.204;8.116;2023-07-09T01:20:47;23.10;63.10
24164;DHT22;12319;49.204;8.116;2023-07-09T01:23:13;23.10;63.30
24164;DHT22;12319;49.204;8.116;2023-07-09T01:25:44;23.10;63.40
24164;DHT22;12319;49.204;8.116;2023-07-09T01:28:11;23.10;63.60
24164;DHT22;12319;49.204;8.116;2023-07-09T01:30:40;23.00;63.40
24164;DHT22;12319;49.204;8.116;2023-07-09T01:33:07;23.10;63.70
24164;DHT22;12319;49.204;8.116;2023-07-09T01:35:38;23.00;63.50
24164;DHT22;12319;49.204;8.116;2023-07-09T01:38:06;23.00;63.50
24164;DHT22;12319;49.204;8.116;2023-07-09T01:40:32;23.00;63.70
24164;DHT22;12319;49.204;8.116;2023-07-09T01:43:00;22.90;63.70
24164;DHT22;12319;49.204;8.116;2023-07-09T01:45:27;22.90;64.10
24164;DHT22;12319;49.204;8.116;2023-07-09T01:47:53;22.90;64.20
24164;DHT22;12319;49.204;8.116;2023-07-09T01:50:19;22.90;64.20
24164;DHT22;12319;49.204;8.116;2023-07-09T01:52:46;22.90;64.20
24164;DHT22;12319;49.204;8.116;2023-07-09T01:55:13;22.70;64.00
24164;DHT22;12319;49.204;8.116;2023-07-09T01:57:40;22.80;64.20
24164;DHT22;12319;49.204;8.116;2023-07-09T02:00:12;22.70;64.20
24164;DHT22;12319;49.204;8.116;2023-07-09T02:02:39;22.80;64.50
24164;DHT22;12319;49.204;8.116;2023-07-09T02:05:09;22.70;64.40
24164;DHT22;12319;49.204;8.116;2023-07-09T02:07:34;22.70;64.50
24164;DHT22;12319;49.204;8.116;2023-07-09T02:10:00;22.70;64.60
24164;DHT22;12319;49.204;8.116;2023-07-09T02:12:25;22.60;64.50
24164;DHT22;12319;49.204;8.116;2023-07-09T02:14:51;22.60;64.60
24164;DHT22;12319;49.204;8.116;2023-07-09T02:17:17;22.60;64.70
24164;DHT22;12319;49.204;8.116;2023-07-09T02:19:43;22.60;64.80
24164;DHT22;12319;49.204;8.116;2023-07-09T02:22:09;22.50;64.90
24164;DHT22;12319;49.204;8.116;2023-07-09T02:24:36;22.50;65.10
24164;DHT22;12319;49.204;8.116;2023-07-09T02:27:04;22.50;65.10
24164;DHT22;12319;49.204;8.116;2023-07-09T02:29:30;22.40;65.20
24164;DHT22;12319;49.204;8.116;2023-07-09T02:31:58;22.40;65.30
24164;DHT22;12319;49.204;8.116;2023-07-09T02:34:28;22.40;65.30
24164;DHT22;12319;49.204;8.116;2023-07-09T02:36:56;22.40;65.60
24164;DHT22;12319;49.204;8.116;2023-07-09T02:39:22;22.30;65.50
24164;DHT22;12319;49.204;8.116;2023-07-09T02:41:49;22.30;65.50
24164;DHT22;12319;49.204;8.116;2023-07-09T02:44:15;22.30;65.60
24164;DHT22;12319;49.204;8.116;2023-07-09T02:46:41;22.20;65.70
24164;DHT22;12319;49.204;8.116;2023-07-09T02:49:08;22.20;65.90
24164;DHT22;12319;49.204;8.116;2023-07-09T02:51:34;22.20;66.10
24164;DHT22;12319;49.204;8.116;2023-07-09T02:54:01;22.20;66.10
24164;DHT22;12319;49.204;8.116;2023-07-09T02:56:27;22.20;66.40
24164;DHT22;12319;49.204;8.116;2023-07-09T02:58:53;22.10;66.30
24164;DHT22;12319;49.204;8.116;2023-07-09T03:01:19;22.10;66.30
24164;DHT22;12319;49.204;8.116;2023-07-09T03:03:51;22.10;66.40
24164;DHT22;12319;49.204;8.116;2023-07-09T03:06:18;22.10;66.60
24164;DHT22;12319;49.204;8.116;2023-07-09T03:08:44;22.00;66.60
24164;DHT22;12319;49.204;8.116;2023-07-09T03:11:11;22.00;67.20
24164;DHT22;12319;49.204;8.116;2023-07-09T03:13:37;22.00;66.80
24164;DHT22;12319;49.204;8.116;2023-07-09T03:16:04;22.00;66.80
24164;DHT22;12319;49.204;8.116;2023-07-09T03:18:30;21.90;66.80
24164;DHT22;12319;49.204;8.116;2023-07-09T03:20:56;22.00;67.00
24164;DHT22;12319;49.204;8.116;2023-07-09T03:23:22;21.90;67.00
24164;DHT22;12319;49.204;8.116;2023-07-09T03:25:47;21.90;67.30
24164;DHT22;12319;49.204;8.116;2023-07-09T03:28:13;21.80;67.20
24164;DHT22;12319;49.204;8.116;2023-07-09T03:30:43;21.80;67.50
24164;DHT22;12319;49.204;8.116;2023-07-09T03:33:10;21.70;67.60
24164;DHT22;12319;49.204;8.116;2023-07-09T03:35:37;21.80;67.80
24164;DHT22;12319;49.204;8.116;2023-07-09T03:38:04;21.80;67.80
24164;DHT22;12319;49.204;8.116;2023-07-09T03:40:30;21.70;68.40
24164;DHT22;12319;49.204;8.116;2023-07-09T03:42:55;21.70;68.00
24164;DHT22;12319;49.204;8.116;2023-07-09T03:45:21;21.70;67.90
24164;DHT22;12319;49.204;8.116;2023-07-09T03:47:46;21.60;68.00
24164;DHT22;12319;49.204;8.116;2023-07-09T03:50:12;21.60;68.10
24164;DHT22;12319;49.204;8.116;2023-07-09T03:52:37;21.60;68.20
24164;DHT22;12319;49.204;8.116;2023-07-09T03:55:03;21.70;68.30
24164;DHT22;12319;49.204;8.116;2023-07-09T03:57:33;21.70;68.10
24164;DHT22;12319;49.204;8.116;2023-07-09T03:59:59;21.70;68.20
24164;DHT22;12319;49.204;8.116;2023-07-09T04:02:25;21.70;68.20
24164;DHT22;12319;49.204;8.116;2023-07-09T04:04:50;21.70;68.20
24164;DHT22;12319;49.204;8.116;2023-07-09T04:07:16;21.70;68.40
24164;DHT22;12319;49.204;8.116;2023-07-09T04:09:42;21.70;68.30
24164;DHT22;12319;49.204;8.116;2023-07-09T04:12:09;21.80;68.40
24164;DHT22;12319;49.204;8.116;2023-07-09T04:14:35;21.80;68.40
24164;DHT22;12319;49.204;8.116;2023-07-09T04:17:01;21.80;68.50
24164;DHT22;12319;49.204;8.116;2023-07-09T04:19:26;21.80;68.40
24164;DHT22;12319;49.204;8.116;2023-07-09T04:21:52;21.90;68.60
24164;DHT22;12319;49.204;8.116;2023-07-09T04:24:18;21.90;68.50
24164;DHT22;12319;49.204;8.116;2023-07-09T04:26:45;22.00;68.70
24164;DHT22;12319;49.204;8.116;2023-07-09T04:29:11;22.00;68.60
24164;DHT22;12319;49.204;8.116;2023-07-09T04:31:37;21.90;68.50
24164;DHT22;12319;49.204;8.116;2023-07-09T04:34:03;22.10;68.70
24164;DHT22;12319;49.204;8.116;2023-07-09T04:36:29;22.10;68.70
24164;DHT22;12319;49.204;8.116;2023-07-09T04:38:54;22.20;68.70
24164;DHT22;12319;49.204;8.116;2023-07-09T04:41:20;22.20;68.60
24164;DHT22;12319;49.204;8.116;2023-07-09T04:43:45;22.30;68.70
24164;DHT22;12319;49.204;8.116;2023-07-09T04:46:11;22.30;68.50
24164;DHT22;12319;49.204;8.116;2023-07-09T04:48:37;22.40;68.40
24164;DHT22;12319;49.204;8.116;2023-07-09T04:51:04;22.50;68.30
24164;DHT22;12319;49.204;8.116;2023-07-09T04:53:29;22.50;68.30
24164;DHT22;12319;49.204;8.116;2023-07-09T04:55:55;22.50;68.20
24164;DHT22;12319;49.204;8.116;2023-07-09T04:58:21;22.50;68.30
24164;DHT22;12319;49.204;8.116;2023-07-09T05:00:46;22.60;68.40
24164;DHT22;12319;49.204;8.116;2023-07-09T05:03:12;22.70;68.40
24164;DHT22;12319;49.204;8.116;2023-07-09T05:05:45;22.80;68.20
24164;DHT22;12319;49.204;8.116;2023-07-09T05:08:14;22.80;68.40
24164;DHT22;12319;49.204;8.116;2023-07-09T05:10:48;23.10;68.40
24164;DHT22;12319;49.204;8.116;2023-07-09T05:13:17;23.00;68.30
24164;DHT22;12319;49.204;8.116;2023-07-09T05:15:45;23.10;68.30
24164;DHT22;12319;49.204;8.116;2023-07-09T05:18:15;23.20;68.20
24164;DHT22;12319;49.204;8.116;2023-07-09T05:20:41;23.30;68.20
24164;DHT22;12319;49.204;8.116;2023-07-09T05:23:11;23.30;67.80
24164;DHT22;12319;49.204;8.116;2023-07-09T05:25:36;23.50;67.50
24164;DHT22;12319;49.204;8.116;2023-07-09T05:28:03;23.50;67.80
24164;DHT22;12319;49.204;8.116;2023-07-09T05:30:29;23.70;67.90
24164;DHT22;12319;49.204;8.116;2023-07-09T05:32:54;23.70;68.00
24164;DHT22;12319;49.204;8.116;2023-07-09T05:35:23;23.90;67.70
24164;DHT22;12319;49.204;8.116;2023-07-09T05:37:51;23.90;67.40
24164;DHT22;12319;49.204;8.116;2023-07-09T05:40:16;24.20;66.90
24164;DHT22;12319;49.204;8.116;2023-07-09T05:42:42;24.20;67.20
24164;DHT22;12319;49.204;8.116;2023-07-09T05:45:08;24.40;67.20
24164;DHT22;12319;49.204;8.116;2023-07-09T05:47:33;24.50;67.00
24164;DHT22;12319;49.204;8.116;2023-07-09T05:49:59;24.80;66.90
24164;DHT22;12319;49.204;8.116;2023-07-09T05:52:25;24.90;66.70
24164;DHT22;12319;49.204;8.116;2023-07-09T05:54:51;25.20;66.70
24164;DHT22;12319;49.204;8.116;2023-07-09T05:57:18;25.70;66.90
24164;DHT22;12319;49.204;8.116;2023-07-09T05:59:44;27.30;66.90
24164;DHT22;12319;49.204;8.116;2023-07-09T06:02:14;29.30;63.90
24164;DHT22;12319;49.204;8.116;2023-07-09T06:04:40;31.80;60.60
24164;DHT22;12319;49.204;8.116;2023-07-09T06:07:08;33.20;57.30
24164;DHT22;12319;49.204;8.116;2023-07-09T06:09:34;34.90;54.60
24164;DHT22;12319;49.204;8.116;2023-07-09T06:12:00;36.40;52.30
24164;DHT22;12319;49.204;8.116;2023-07-09T06:14:26;37.60;50.20
24164;DHT22;12319;49.204;8.116;2023-07-09T06:16:52;38.70;48.90
24164;DHT22;12319;49.204;8.116;2023-07-09T06:19:17;39.70;47.60
24164;DHT22;12319;49.204;8.116;2023-07-09T06:21:43;40.50;46.50
24164;DHT22;12319;49.204;8.116;2023-07-09T06:24:09;41.30;45.10
24164;DHT22;12319;49.204;8.116;2023-07-09T06:26:35;42.00;44.10
24164;DHT22;12319;49.204;8.116;2023-07-09T06:29:00;42.70;43.10
24164;DHT22;12319;49.204;8.116;2023-07-09T06:31:26;43.30;42.30
24164;DHT22;12319;49.204;8.116;2023-07-09T06:33:52;43.90;41.40
24164;DHT22;12319;49.204;8.116;2023-07-09T06:36:19;44.30;40.40
24164;DHT22;12319;49.204;8.116;2023-07-09T06:38:45;44.70;39.70
24164;DHT22;12319;49.204;8.116;2023-07-09T06:41:11;45.10;39.00
24164;DHT22;12319;49.204;8.116;2023-07-09T06:43:37;45.30;38.10
24164;DHT22;12319;49.204;8.116;2023-07-09T06:46:07;45.40;38.10
24164;DHT22;12319;49.204;8.116;2023-07-09T06:48:34;45.50;37.40
24164;DHT22;12319;49.204;8.116;2023-07-09T06:51:00;45.60;37.30
24164;DHT22;12319;49.204;8.116;2023-07-09T06:53:27;45.90;36.70
24164;DHT22;12319;49.204;8.116;2023-07-09T06:55:53;46.40;36.20
24164;DHT22;12319;49.204;8.116;2023-07-09T06:58:21;46.70;35.90
24164;DHT22;12319;49.204;8.116;2023-07-09T07:00:48;46.90;35.50
24164;DHT22;12319;49.204;8.116;2023-07-09T07:03:14;47.30;34.80
24164;DHT22;12319;49.204;8.116;2023-07-09T07:05:45;47.60;32.40
24164;DHT22;12319;49.204;8.116;2023-07-09T07:08:14;47.70;33.80
24164;DHT22;12319;49.204;8.116;2023-07-09T07:10:40;47.90;33.80
24164;DHT22;12319;49.204;8.116;2023-07-09T07:13:06;48.10;33.90
24164;DHT22;12319;49.204;8.116;2023-07-09T07:15:31;48.60;33.50
24164;DHT22;12319;49.204;8.116;2023-07-09T07:17:57;49.00;32.70
24164;DHT22;12319;49.204;8.116;2023-07-09T07:20:23;49.40;32.50
24164;DHT22;12319;49.204;8.116;2023-07-09T07:22:49;49.50;32.00
24164;DHT22;12319;49.204;8.116;2023-07-09T07:25:14;49.50;31.80
24164;DHT22;12319;49.204;8.116;2023-07-09T07:27:40;49.70;31.60
24164;DHT22;12319;49.204;8.116;2023-07-09T07:30:07;50.00;31.40
24164;DHT22;12319;49.204;8.116;2023-07-09T07:32:38;50.20;30.90
24164;DHT22;12319;49.204;8.116;2023-07-09T07:35:04;50.40;30.10
24164;DHT22;12319;49.204;8.116;2023-07-09T07:37:29;50.40;30.20
24164;DHT22;12319;49.204;8.116;2023-07-09T07:39:55;50.50;30.20
24164;DHT22;12319;49.204;8.116;2023-07-09T07:44:47;50.60;29.40
24164;DHT22;12319;49.204;8.116;2023-07-09T07:47:12;50.70;29.80
24164;DHT22;12319;49.204;8.116;2023-07-09T07:49:38;50.90;29.70
24164;DHT22;12319;49.204;8.116;2023-07-09T07:52:04;51.00;29.60
24164;DHT22;12319;49.204;8.116;2023-07-09T07:54:30;51.10;29.60
24164;DHT22;12319;49.204;8.116;2023-07-09T07:56:59;51.10;29.40
24164;DHT22;12319;49.204;8.116;2023-07-09T07:59:25;51.00;29.80
24164;DHT22;12319;49.204;8.116;2023-07-09T08:01:50;51.00;29.30
24164;DHT22;12319;49.204;8.116;2023-07-09T08:04:16;51.20;29.10
24164;DHT22;12319;49.204;8.116;2023-07-09T08:06:42;51.40;28.80
24164;DHT22;12319;49.204;8.116;2023-07-09T08:09:07;51.50;28.80
24164;DHT22;12319;49.204;8.116;2023-07-09T08:11:34;51.60;28.70
24164;DHT22;12319;49.204;8.116;2023-07-09T08:13:59;51.50;28.10
24164;DHT22;12319;49.204;8.116;2023-07-09T08:16:26;51.20;28.10
24164;DHT22;12319;49.204;8.116;2023-07-09T08:18:52;50.90;28.40
24164;DHT22;12319;49.204;8.116;2023-07-09T08:21:18;50.60;28.30
24164;DHT22;12319;49.204;8.116;2023-07-09T08:23:45;50.30;28.00
24164;DHT22;12319;49.204;8.116;2023-07-09T08:26:10;49.90;27.90
24164;DHT22;12319;49.204;8.116;2023-07-09T08:28:37;49.30;28.20
24164;DHT22;12319;49.204;8.116;2023-07-09T08:31:02;48.60;28.50
24164;DHT22;12319;49.204;8.116;2023-07-09T08:33:29;48.10;28.70
24164;DHT22;12319;49.204;8.116;2023-07-09T08:35:55;47.80;28.80
24164;DHT22;12319;49.204;8.116;2023-07-09T08:38:21;47.00;28.80
24164;DHT22;12319;49.204;8.116;2023-07-09T08:44:22;44.20;30.00
24164;DHT22;12319;49.204;8.116;2023-07-09T08:49:21;41.20;32.80
24164;DHT22;12319;49.204;8.116;2023-07-09T08:51:49;40.40;33.60
24164;DHT22;12319;49.204;8.116;2023-07-09T08:54:25;39.70;34.20
24164;DHT22;12319;49.204;8.116;2023-07-09T08:56:52;39.10;34.90
24164;DHT22;12319;49.204;8.116;2023-07-09T08:59:18;38.60;35.10
24164;DHT22;12319;49.204;8.116;2023-07-09T09:01:52;38.10;35.70
24164;DHT22;12319;49.204;8.116;2023-07-09T09:04:30;37.80;36.50
24164;DHT22;12319;49.204;8.116;2023-07-09T09:09:33;37.10;37.10
24164;DHT22;12319;49.204;8.116;2023-07-09T09:12:19;36.90;37.30
24164;DHT22;12319;49.204;8.116;2023-07-09T09:14:53;36.70;37.90
24164;DHT22;12319;49.204;8.116;2023-07-09T09:17:24;36.70;37.70
24164;DHT22;12319;49.204;8.116;2023-07-09T09:19:57;36.70;37.80
24164;DHT22;12319;49.204;8.116;2023-07-09T09:22:40;36.70;38.30
24164;DHT22;12319;49.204;8.116;2023-07-09T09:25:29;36.60;38.20
24164;DHT22;12319;49.204;8.116;2023-07-09T09:27:55;36.50;38.40
24164;DHT22;12319;49.204;8.116;2023-07-09T09:30:23;36.50;38.40
24164;DHT22;12319;49.204;8.116;2023-07-09T09:32:54;36.50;38.50
24164;DHT22;12319;49.204;8.116;2023-07-09T09:35:26;36.50;38.20
24164;DHT22;12319;49.204;8.116;2023-07-09T09:37:54;36.50;38.50
24164;DHT22;12319;49.204;8.116;2023-07-09T09:40:21;36.50;38.40
24164;DHT22;12319;49.204;8.116;2023-07-09T09:42:49;36.50;38.30
24164;DHT22;12319;49.204;8.116;2023-07-09T09:45:18;36.50;38.00
24164;DHT22;12319;49.204;8.116;2023-07-09T09:47:44;36.50;38.30
24164;DHT22;12319;49.204;8.116;2023-07-09T09:50:18;36.50;38.50
24164;DHT22;12319;49.204;8.116;2023-07-09T09:52:46;36.60;38.50
24164;DHT22;12319;49.204;8.116;2023-07-09T09:55:22;36.60;38.40
24164;DHT22;12319;49.204;8.116;2023-07-09T09:57:53;36.60;38.20
24164;DHT22;12319;49.204;8.116;2023-07-09T10:00:22;36.60;38.30
24164;DHT22;12319;49.204;8.116;2023-07-09T10:02:48;36.60;38.10
24164;DHT22;12319;49.204;8.116;2023-07-09T10:05:15;36.60;38.20
24164;DHT22;12319;49.204;8.116;2023-07-09T10:07:55;36.70;38.40
24164;DHT22;12319;49.204;8.116;2023-07-09T10:10:24;36.70;38.10
24164;DHT22;12319;49.204;8.116;2023-07-09T10:12:59;36.70;38.10
24164;DHT22;12319;49.204;8.116;2023-07-09T10:15:33;36.70;38.20
24164;DHT22;12319;49.204;8.116;2023-07-09T10:18:28;36.70;37.70
24164;DHT22;12319;49.204;8.116;2023-07-09T10:21:04;36.60;37.40
24164;DHT22;12319;49.204;8.116;2023-07-09T10:26:11;36.50;37.10
24164;DHT22;12319;49.204;8.116;2023-07-09T10:31:50;36.40;37.40
24164;DHT22;12319;49.204;8.116;2023-07-09T10:34:38;36.50;37.20
24164;DHT22;12319;49.204;8.116;2023-07-09T10:40:07;36.40;37.50
24164;DHT22;12319;49.204;8.116;2023-07-09T10:42:42;36.40;37.50
24164;DHT22;12319;49.204;8.116;2023-07-09T10:45:23;36.30;36.90
24164;DHT22;12319;49.204;8.116;2023-07-09T10:48:01;36.20;37.00
24164;DHT22;12319;49.204;8.116;2023-07-09T10:50:36;36.20;37.40
24164;DHT22;12319;49.204;8.116;2023-07-09T10:53:41;36.20;37.30
24164;DHT22;12319;49.204;8.116;2023-07-09T10:56:14;36.20;37.10
24164;DHT22;12319;49.204;8.116;2023-07-09T10:58:55;36.20;37.50
24164;DHT22;12319;49.204;8.116;2023-07-09T11:01:33;36.30;37.70
24164;DHT22;12319;49.204;8.116;2023-07-09T11:04:20;36.30;37.60
24164;DHT22;12319;49.204;8.116;2023-07-09T11:06:50;36.30;37.70
24164;DHT22;12319;49.204;8.116;2023-07-09T11:09:27;36.40;37.40
24164;DHT22;12319;49.204;8.116;2023-07-09T11:11:59;36.40;36.50
24164;DHT22;12319;49.204;8.116;2023-07-09T11:14:29;36.40;36.50
24164;DHT22;12319;49.204;8.116;2023-07-09T11:16:58;36.40;36.00
24164;DHT22;12319;49.204;8.116;2023-07-09T11:19:25;36.40;36.50
24164;DHT22;12319;49.204;8.116;2023-07-09T11:22:05;36.40;36.50
24164;DHT22;12319;49.204;8.116;2023-07-09T11:27:26;36.50;36.30
24164;DHT22;12319;49.204;8.116;2023-07-09T11:30:23;36.50;36.40
24164;DHT22;12319;49.204;8.116;2023-07-09T11:33:04;36.60;36.00
24164;DHT22;12319;49.204;8.116;2023-07-09T11:35:46;36.70;36.40
24164;DHT22;12319;49.204;8.116;2023-07-09T11:38:18;36.70;36.00
24164;DHT22;12319;49.204;8.116;2023-07-09T11:40:53;36.80;36.20
24164;DHT22;12319;49.204;8.116;2023-07-09T11:43:34;36.90;35.70
24164;DHT22;12319;49.204;8.116;2023-07-09T11:46:11;37.00;35.50
24164;DHT22;12319;49.204;8.116;2023-07-09T11:48:39;37.20;35.60
24164;DHT22;12319;49.204;8.116;2023-07-09T11:51:21;37.20;35.80
24164;DHT22;12319;49.204;8.116;2023-07-09T11:53:53;37.30;35.30
24164;DHT22;12319;49.204;8.116;2023-07-09T11:56:23;37.30;35.20
24164;DHT22;12319;49.204;8.116;2023-07-09T11:58:51;37.40;35.40
24164;DHT22;12319;49.204;8.116;2023-07-09T12:01:36;37.40;35.40
24164;DHT22;12319;49.204;8.116;2023-07-09T12:04:05;37.50;34.90
24164;DHT22;12319;49.204;8.116;2023-07-09T12:06:32;37.70;35.50
24164;DHT22;12319;49.204;8.116;2023-07-09T12:08:59;37.80;35.40
24164;DHT22;12319;49.204;8.116;2023-07-09T12:11:28;37.90;35.30
24164;DHT22;12319;49.204;8.116;2023-07-09T12:14:04;38.00;35.30
24164;DHT22;12319;49.204;8.116;2023-07-09T12:16:35;38.20;35.00
24164;DHT22;12319;49.204;8.116;2023-07-09T12:19:01;38.30;34.50
24164;DHT22;12319;49.204;8.116;2023-07-09T12:21:27;38.30;34.40
24164;DHT22;12319;49.204;8.116;2023-07-09T12:23:54;38.30;34.70
24164;DHT22;12319;49.204;8.116;2023-07-09T12:26:21;38.30;34.90
24164;DHT22;12319;49.204;8.116;2023-07-09T12:28:55;38.40;35.00
24164;DHT22;12319;49.204;8.116;2023-07-09T12:31:30;38.40;35.00
24164;DHT22;12319;49.204;8.116;2023-07-09T12:33:57;38.50;34.80
24164;DHT22;12319;49.204;8.116;2023-07-09T12:36:25;38.50;35.00
24164;DHT22;12319;49.204;8.116;2023-07-09T12:38:53;38.50;34.60
24164;DHT22;12319;49.204;8.116;2023-07-09T12:41:24;38.50;34.50
24164;DHT22;12319;49.204;8.116;2023-07-09T12:43:54;38.60;34.40
24164;DHT22;12319;49.204;8.116;2023-07-09T12:46:23;38.70;34.10
24164;DHT22;12319;49.204;8.116;2023-07-09T12:48:49;38.70;34.50
24164;DHT22;12319;49.204;8.116;2023-07-09T12:51:22;38.80;34.50
24164;DHT22;12319;49.204;8.116;2023-07-09T12:54:16;38.90;34.00
24164;DHT22;12319;49.204;8.116;2023-07-09T12:56:42;39.00;33.60
24164;DHT22;12319;49.204;8.116;2023-07-09T12:59:38;39.30;34.00
24164;DHT22;12319;49.204;8.116;2023-07-09T13:02:18;39.50;33.10
24164;DHT22;12319;49.204;8.116;2023-07-09T13:04:44;39.80;33.50
24164;DHT22;12319;49.204;8.116;2023-07-09T13:07:36;39.90;33.60
24164;DHT22;12319;49.204;8.116;2023-07-09T13:10:14;40.00;32.00
24164;DHT22;12319;49.204;8.116;2023-07-09T13:12:41;40.10;32.60
24164;DHT22;12319;49.204;8.116;2023-07-09T13:15:26;40.00;32.80
24164;DHT22;12319;49.204;8.116;2023-07-09T13:18:00;39.90;31.70
24164;DHT22;12319;49.204;8.116;2023-07-09T13:20:26;39.90;32.60
24164;DHT22;12319;49.204;8.116;2023-07-09T13:22:52;40.00;31.80
24164;DHT22;12319;49.204;8.116;2023-07-09T13:25:17;40.10;31.80
24164;DHT22;12319;49.204;8.116;2023-07-09T13:27:43;40.10;32.40
24164;DHT22;12319;49.204;8.116;2023-07-09T13:30:11;40.20;32.80
24164;DHT22;12319;49.204;8.116;2023-07-09T13:32:37;40.30;32.60
24164;DHT22;12319;49.204;8.116;2023-07-09T13:35:08;40.30;32.40
24164;DHT22;12319;49.204;8.116;2023-07-09T13:37:37;40.30;32.50
24164;DHT22;12319;49.204;8.116;2023-07-09T13:40:03;40.30;32.50
24164;DHT22;12319;49.204;8.116;2023-07-09T13:42:29;40.40;32.20
24164;DHT22;12319;49.204;8.116;2023-07-09T13:44:54;40.40;32.00
24164;DHT22;12319;49.204;8.116;2023-07-09T13:47:21;40.50;32.00
24164;DHT22;12319;49.204;8.116;2023-07-09T13:49:47;40.60;31.80
24164;DHT22;12319;49.204;8.116;2023-07-09T13:52:21;40.60;31.80
24164;DHT22;12319;49.204;8.116;2023-07-09T13:54:48;40.70;31.70
24164;DHT22;12319;49.204;8.116;2023-07-09T13:57:18;40.80;31.70
24164;DHT22;12319;49.204;8.116;2023-07-09T13:59:44;40.80;31.60
24164;DHT22;12319;49.204;8.116;2023-07-09T14:02:26;41.00;31.50
24164;DHT22;12319;49.204;8.116;2023-07-09T14:05:00;41.00;30.80
24164;DHT22;12319;49.204;8.116;2023-07-09T14:09:51;41.20;31.40
24164;DHT22;12319;49.204;8.116;2023-07-09T14:12:17;41.30;31.40
24164;DHT22;12319;49.204;8.116;2023-07-09T14:14:43;41.10;31.60
24164;DHT22;12319;49.204;8.116;2023-07-09T14:17:12;41.00;31.10
24164;DHT22;12319;49.204;8.116;2023-07-09T14:19:37;40.80;31.30
24164;DHT22;12319;49.204;8.116;2023-07-09T14:22:22;40.60;31.40
24164;DHT22;12319;49.204;8.116;2023-07-09T14:24:49;40.50;31.20
24164;DHT22;12319;49.204;8.116;2023-07-09T14:27:15;40.40;31.80
24164;DHT22;12319;49.204;8.116;2023-07-09T14:29:40;40.40;31.20
24164;DHT22;12319;49.204;8.116;2023-07-09T14:32:35;40.30;31.30
24164;DHT22;12319;49.204;8.116;2023-07-09T14:35:04;40.10;31.10
24164;DHT22;12319;49.204;8.116;2023-07-09T14:37:34;40.10;31.70
24164;DHT22;12319;49.204;8.116;2023-07-09T14:40:00;40.20;31.80
24164;DHT22;12319;49.204;8.116;2023-07-09T14:42:25;40.20;31.60
24164;DHT22;12319;49.204;8.116;2023-07-09T14:44:51;40.10;31.70
24164;DHT22;12319;49.204;8.116;2023-07-09T14:47:19;40.10;32.40
24164;DHT22;12319;49.204;8.116;2023-07-09T14:49:45;39.80;31.50
24164;DHT22;12319;49.204;8.116;2023-07-09T14:52:17;39.70;31.60
24164;DHT22;12319;49.204;8.116;2023-07-09T14:54:44;39.50;31.90
24164;DHT22;12319;49.204;8.116;2023-07-09T14:57:21;39.40;32.10
24164;DHT22;12319;49.204;8.116;2023-07-09T14:59:49;39.30;32.10
24164;DHT22;12319;49.204;8.116;2023-07-09T15:02:34;39.30;32.30
24164;DHT22;12319;49.204;8.116;2023-07-09T15:05:05;39.30;31.90
24164;DHT22;12319;49.204;8.116;2023-07-09T15:07:32;39.30;32.30
24164;DHT22;12319;49.204;8.116;2023-07-09T15:10:00;39.30;32.30
24164;DHT22;12319;49.204;8.116;2023-07-09T15:12:30;39.30;32.50
24164;DHT22;12319;49.204;8.116;2023-07-09T15:15:26;39.30;32.10
24164;DHT22;12319;49.204;8.116;2023-07-09T15:17:53;39.30;32.00
24164;DHT22;12319;49.204;8.116;2023-07-09T15:20:20;39.10;32.30
24164;DHT22;12319;49.204;8.116;2023-07-09T15:22:48;39.10;32.40
24164;DHT22;12319;49.204;8.116;2023-07-09T15:25:23;39.00;32.30
24164;DHT22;12319;49.204;8.116;2023-07-09T15:27:50;38.90;32.30
24164;DHT22;12319;49.204;8.116;2023-07-09T15:30:24;38.70;32.20
24164;DHT22;12319;49.204;8.116;2023-07-09T15:32:50;38.50;31.80
24164;DHT22;12319;49.204;8.116;2023-07-09T15:35:18;38.40;32.30
24164;DHT22;12319;49.204;8.116;2023-07-09T15:37:45;38.20;32.60
24164;DHT22;12319;49.204;8.116;2023-07-09T15:40:20;38.20;32.70
24164;DHT22;12319;49.204;8.116;2023-07-09T15:42:47;38.10;32.80
24164;DHT22;12319;49.204;8.116;2023-07-09T15:45:14;38.00;32.80
24164;DHT22;12319;49.204;8.116;2023-07-09T15:47:40;37.80;32.90
24164;DHT22;12319;49.204;8.116;2023-07-09T15:50:21;37.70;33.00
24164;DHT22;12319;49.204;8.116;2023-07-09T15:52:47;37.50;33.20
24164;DHT22;12319;49.204;8.116;2023-07-09T15:55:18;37.40;33.20
24164;DHT22;12319;49.204;8.116;2023-07-09T15:57:46;37.30;33.70
24164;DHT22;12319;49.204;8.116;2023-07-09T16:00:24;37.20;33.80
24164;DHT22;12319;49.204;8.116;2023-07-09T16:02:51;37.10;33.90
24164;DHT22;12319;49.204;8.116;2023-07-09T16:05:23;37.00;34.20
24164;DHT22;12319;49.204;8.116;2023-07-09T16:07:50;36.90;34.40